Station info - map view · info · telemetry · weather · raw · status · beacons · messages · bulletins · browse · moving · my account
Callsign, ship name or locator: Clear       
It is possible to search using wildcards (*?) after a prefix. Example: OH*
APRS station AB9SJ - show graphs
Map loading...
Mic-E message: Off duty
Location: 38°50.00' N 77°03.78' W - locator FM18LT29KX - show map - static map
3.8 miles East bearing 108° from Baileys Crossroads, Fairfax County, Virginia, United States [?]
4.4 miles East bearing 77° from Lincolnia, Fairfax County, Virginia, United States
4.5 miles South bearing 199° from Washington, D. C., Washington, D.C., United States
39.7 miles Southwest bearing 218° from Baltimore, City of Baltimore, Maryland, United States
Last position: 2019-10-14 22:09:50 EDT (8d 21h5m ago)
2019-10-14 22:09:50 EDT local time at Baileys Crossroads, United States [?]
Altitude: 157 ft
Course: 131°
Speed: 0 MPH
Last telemetry: 2016-08-28 11:45:44 EDT (1151d 7h29m ago) – show telemetry
Ch 1: 459, Ch 2: 621, Ch 3: 0, Ch 4: 0, Ch 5: 0
 1     2     3     4     5     6     7     8 
Device: Kenwood: TH-D72 (ht)
Last path: AB9SJ>SXUP0P via WIDE1-1,qAO,N3WCH (good)
Positions stored: 61239
Stations near current position of AB9SJ - show more
callsign distance last heard - EDT      callsign distance last heard - EDT
W4GHG-51.2 miles 31°2019-10-22 23:39:28 ALXTest1.4 miles 207°2019-10-23 19:09:36
FW10001.5 miles 303°2019-10-23 19:15:09 KF2T1.5 miles 25°2019-10-23 19:11:48
KE2HO1.8 miles 38°2019-10-23 19:00:06 N1LL-91.9 miles 36°2019-10-16 18:58:34
CW88382.0 miles 305°2019-10-23 19:13:36 CW62942.3 miles 238°2019-10-23 19:10:41
KM4TZX-92.3 miles 347°2019-10-05 14:30:51 W4HFH A2.4 miles 252°2019-10-23 19:09:24
W4HFH AD2.4 miles 252°2019-10-23 19:09:24 W4HFH C2.4 miles 252°2019-10-23 19:09:24
W4HFH B2.4 miles 252°2019-10-23 19:09:24 W4HFH-A2.4 miles 252°2019-10-23 19:09:09
W4HFH-B2.4 miles 252°2019-10-23 19:09:09 W4HFH-C2.4 miles 252°2019-10-23 19:09:09
KA4GFY2.5 miles 166°2019-10-06 13:54:45 K4AF-62.6 miles 10°2019-10-23 18:53:31
KA6AKH-13.2 miles 271°2019-10-23 19:03:40 W4HFH-133.4 miles 256°2019-10-22 20:39:15
Stations which heard AB9SJ directly on radio –
callsign pkts first heard - EDT last heard longest (tx => rx) longest at - EDT
KD4CCO 17 2019-10-12 12:37:11 2019-10-14 16:29:17 EM86UN > EM86VP 8.3 miles 59° 2019-10-12 12:46:51
N4DSL-3 61 2019-10-12 08:02:59 2019-10-14 20:21:50 FM08LE > FM08PK 23.5 miles 38° 2019-10-14 19:42:57
N3HF-1 2 2019-10-14 21:26:18 2019-10-14 21:40:58 FM18DT > FM18GQ 16.9 miles 124° 2019-10-14 21:26:18
K4EME-3 46 2019-10-12 08:24:12 2019-10-14 20:17:44 FM08QQ > FM08ID 50.6 miles 225° 2019-10-14 20:17:44
NV4FM-5 4 2019-10-12 06:35:35 2019-10-14 21:53:42 FM18JT > FM18JV 5.7 miles 3° 2019-10-14 21:53:42
KE4OTZ-3 54 2019-10-12 14:01:48 2019-10-14 14:57:00 EM75UU > EM85BP 27.0 miles 122° 2019-10-12 16:20:20
KV3B-1 2 2019-10-12 06:36:36 2019-10-14 21:52:40 FM18JU > FM19JE 24.0 miles 357° 2019-10-14 21:52:40
K4FDS 6 2019-10-12 10:29:49 2019-10-14 18:37:41 FM07AI > FM07AI 3.2 miles 231° 2019-10-14 18:37:41
KJ4SNT 6 2019-10-12 10:58:28 2019-10-14 18:12:47 EM97TD > EM96TX 12.4 miles 185° 2019-10-14 18:12:47
W4VA-10 23 2019-10-12 06:38:08 2019-10-14 21:48:19 FM18JV > FM18BR 35.0 miles 252° 2019-10-12 06:38:08
KK4ZUU 11 2019-10-12 06:49:07 2019-10-14 21:40:27 FM18FT > FM18GT 6.0 miles 74° 2019-10-12 06:55:50
KD4BNQ-3 36 2019-10-12 10:43:34 2019-10-14 18:15:21 EM96MW > EM97RI 38.1 miles 41° 2019-10-14 17:35:51
W4FXO-3 4 2019-10-12 12:48:23 2019-10-14 16:21:07 EM86VO > EM86TN 5.7 miles 241° 2019-10-14 16:21:07
W4DHW-1 13 2019-10-12 09:53:11 2019-10-14 19:21:59 FM07IV > FM07HR 11.4 miles 208° 2019-10-14 19:21:59
KJ4TRN-10 3 2019-10-12 12:56:30 2019-10-14 16:09:56 EM86SM > EM86RI 9.1 miles 198° 2019-10-14 16:09:56
K4MRA-4 37 2019-10-12 07:34:20 2019-10-14 20:57:19 FM08VX > FM08OU 31.4 miles 253° 2019-10-14 20:57:19
W4KEL-12 10 2019-10-12 09:15:33 2019-10-14 21:40:58 FM18HU > FM08QH 75.6 miles 240° 2019-10-14 21:40:58
KW4BV-10 27 2019-10-12 14:02:18 2019-10-14 15:05:48 EM85EX > EM86CA 9.8 miles 284° 2019-10-14 15:05:48
WC4J-3 7 2019-10-12 06:47:35 2019-10-14 21:35:13 FM18HU > FM18FT 7.8 miles 238° 2019-10-12 06:47:35
WR4CV-4 42 2019-10-12 08:21:51 2019-10-14 20:12:35 FM08PO > FM07MV 49.5 miles 195° 2019-10-14 20:12:35
K4BBB-1 2 2019-10-12 06:37:38 2019-10-12 06:38:41 FM18JV > FM18JV 1.2 miles 62° 2019-10-12 06:38:41
N4FKH-10 2 2019-10-14 21:58:20 2019-10-14 22:01:29 FM18KT > FM18KT 3.0 miles 266° 2019-10-14 22:01:29
W4YBO-10 8 2019-10-12 12:58:34 2019-10-12 13:06:11 EM86RL > EM86QK 5.0 miles 239° 2019-10-12 12:58:34
WT4R-1 3 2019-10-14 15:01:44 2019-10-14 15:09:22 EM85FX > EM85EW 7.1 miles 229° 2019-10-14 15:09:22
KI4HDU-4 2 2019-10-12 13:56:12 2019-10-12 13:58:45 EM85EX > EM85FW 5.3 miles 112° 2019-10-12 13:58:45
N3WCH 4 2019-10-12 06:19:25 2019-10-14 22:09:50 FM18LT > FM18LW 6.5 miles 14° 2019-10-14 22:09:50
WA1STU-10 14 2019-10-12 06:54:47 2019-10-14 21:42:06 FM18HU > FM18ET 11.6 miles 262° 2019-10-14 21:42:06

Only position packets which were originated by the station are shown here. The range statistics show some extra long hops, because some digipeaters do not correctly add themselves to the digipeater path. Please check the raw packets.
About this site
This page shows real-time information collected from the Automatic Position Reporting System Internet network (APRS-IS). APRS is used by amateur (ham) radio operators to transmit real-time position information, weather data, telemetry and messages over the radio. A vehicle equipped with a GPS receiver, a VHF transmitter or HF transceiver and a small computer device called a tracker transmits it's location, speed and course in a small data packet, which is then received by a nearby iGate receiving site which forwards the packet on the Internet. Systems connected to the Internet can send information on the APRS-IS without a radio transmitter, or collect and display information transmitted anywhere in the world.
User guide · FAQ · Blog · Discussion group · Linking to aprs.fi · AIS sites · Service status · Database statistics · Advertising on aprs.fi · Technical details · API · Change log · Planned changes · Credits and thanks · Terms Of Service · iPhone/iPad APRS